sensor_id;sensor_type;location;lat;lon;timestamp;P1;durP1;ratioP1;P2;durP2;ratioP2
24873;SDS011;12945;42.648;23.370;2023-03-14T00:00:53;14.85;;;6.57;;
24873;SDS011;12945;42.648;23.370;2023-03-14T00:03:18;15.07;;;7.57;;
24873;SDS011;12945;42.648;23.370;2023-03-14T00:05:45;13.10;;;7.40;;
24873;SDS011;12945;42.648;23.370;2023-03-14T00:08:10;17.30;;;8.00;;
24873;SDS011;12945;42.648;23.370;2023-03-14T00:10:36;13.55;;;7.75;;
24873;SDS011;12945;42.648;23.370;2023-03-14T00:13:01;13.15;;;8.20;;
24873;SDS011;12945;42.648;23.370;2023-03-14T00:15:31;14.73;;;9.32;;
24873;SDS011;12945;42.648;23.370;2023-03-14T00:17:56;15.27;;;8.60;;
24873;SDS011;12945;42.648;23.370;2023-03-14T00:20:24;17.02;;;9.25;;
24873;SDS011;12945;42.648;23.370;2023-03-14T00:22:49;18.98;;;10.63;;
24873;SDS011;12945;42.648;23.370;2023-03-14T00:25:21;17.65;;;9.27;;
24873;SDS011;12945;42.648;23.370;2023-03-14T00:27:46;17.17;;;9.15;;
24873;SDS011;12945;42.648;23.370;2023-03-14T00:30:28;22.42;;;9.88;;
24873;SDS011;12945;42.648;23.370;2023-03-14T00:32:53;16.38;;;9.02;;
24873;SDS011;12945;42.648;23.370;2023-03-14T00:35:20;15.70;;;9.00;;
24873;SDS011;12945;42.648;23.370;2023-03-14T00:37:45;16.15;;;8.45;;
24873;SDS011;12945;42.648;23.370;2023-03-14T00:40:17;13.45;;;7.95;;
24873;SDS011;12945;42.648;23.370;2023-03-14T00:42:42;14.90;;;8.38;;
24873;SDS011;12945;42.648;23.370;2023-03-14T00:47:54;14.25;;;7.50;;
24873;SDS011;12945;42.648;23.370;2023-03-14T00:50:23;13.75;;;7.22;;
24873;SDS011;12945;42.648;23.370;2023-03-14T00:52:48;13.02;;;6.90;;
24873;SDS011;12945;42.648;23.370;2023-03-14T00:55:29;14.85;;;7.10;;
24873;SDS011;12945;42.648;23.370;2023-03-14T00:57:55;16.13;;;7.05;;
24873;SDS011;12945;42.648;23.370;2023-03-14T01:00:27;11.32;;;6.97;;
24873;SDS011;12945;42.648;23.370;2023-03-14T01:02:53;10.77;;;6.47;;
24873;SDS011;12945;42.648;23.370;2023-03-14T01:05:19;15.82;;;7.07;;
24873;SDS011;12945;42.648;23.370;2023-03-14T01:07:46;12.13;;;6.65;;
24873;SDS011;12945;42.648;23.370;2023-03-14T01:10:13;12.60;;;6.68;;
24873;SDS011;12945;42.648;23.370;2023-03-14T01:12:38;11.90;;;7.13;;
24873;SDS011;12945;42.648;23.370;2023-03-14T01:15:04;16.83;;;8.68;;
24873;SDS011;12945;42.648;23.370;2023-03-14T01:17:29;10.90;;;7.43;;
24873;SDS011;12945;42.648;23.370;2023-03-14T01:19:56;20.17;;;7.43;;
24873;SDS011;12945;42.648;23.370;2023-03-14T01:22:21;12.57;;;7.55;;
24873;SDS011;12945;42.648;23.370;2023-03-14T01:24:53;20.45;;;8.65;;
24873;SDS011;12945;42.648;23.370;2023-03-14T01:27:18;13.05;;;8.10;;
24873;SDS011;12945;42.648;23.370;2023-03-14T01:29:44;14.07;;;7.47;;
24873;SDS011;12945;42.648;23.370;2023-03-14T01:32:09;13.43;;;7.15;;
24873;SDS011;12945;42.648;23.370;2023-03-14T01:34:37;13.65;;;7.43;;
24873;SDS011;12945;42.648;23.370;2023-03-14T01:37:02;11.88;;;7.38;;
24873;SDS011;12945;42.648;23.370;2023-03-14T01:39:27;16.95;;;8.18;;
24873;SDS011;12945;42.648;23.370;2023-03-14T01:41:55;19.35;;;8.63;;
24873;SDS011;12945;42.648;23.370;2023-03-14T01:44:20;14.32;;;8.35;;
24873;SDS011;12945;42.648;23.370;2023-03-14T01:46:47;20.65;;;9.80;;
24873;SDS011;12945;42.648;23.370;2023-03-14T01:51:49;15.57;;;9.15;;
24873;SDS011;12945;42.648;23.370;2023-03-14T01:54:17;17.20;;;9.35;;
24873;SDS011;12945;42.648;23.370;2023-03-14T01:59:34;22.88;;;10.68;;
24873;SDS011;12945;42.648;23.370;2023-03-14T02:02:00;23.88;;;11.82;;
24873;SDS011;12945;42.648;23.370;2023-03-14T02:04:28;21.95;;;11.27;;
24873;SDS011;12945;42.648;23.370;2023-03-14T02:09:45;26.40;;;13.70;;
24873;SDS011;12945;42.648;23.370;2023-03-14T02:12:11;28.17;;;14.27;;
24873;SDS011;12945;42.648;23.370;2023-03-14T02:14:39;32.42;;;14.77;;
24873;SDS011;12945;42.648;23.370;2023-03-14T02:17:07;28.75;;;15.38;;
24873;SDS011;12945;42.648;23.370;2023-03-14T02:19:40;38.15;;;16.77;;
24873;SDS011;12945;42.648;23.370;2023-03-14T02:27:24;31.67;;;16.52;;
24873;SDS011;12945;42.648;23.370;2023-03-14T02:30:08;28.33;;;16.33;;
24873;SDS011;12945;42.648;23.370;2023-03-14T02:32:34;34.78;;;16.25;;
24873;SDS011;12945;42.648;23.370;2023-03-14T02:35:02;36.30;;;15.93;;
24873;SDS011;12945;42.648;23.370;2023-03-14T02:37:33;32.72;;;16.30;;
24873;SDS011;12945;42.648;23.370;2023-03-14T02:42:58;31.02;;;15.77;;
24873;SDS011;12945;42.648;23.370;2023-03-14T02:45:31;35.83;;;16.67;;
24873;SDS011;12945;42.648;23.370;2023-03-14T02:48:00;34.15;;;16.02;;
24873;SDS011;12945;42.648;23.370;2023-03-14T02:50:33;28.40;;;15.80;;
24873;SDS011;12945;42.648;23.370;2023-03-14T02:52:59;29.85;;;16.38;;
24873;SDS011;12945;42.648;23.370;2023-03-14T02:55:28;28.33;;;15.65;;
24873;SDS011;12945;42.648;23.370;2023-03-14T02:57:53;31.85;;;15.32;;
24873;SDS011;12945;42.648;23.370;2023-03-14T03:00:27;30.58;;;14.52;;
24873;SDS011;12945;42.648;23.370;2023-03-14T03:02:53;32.13;;;14.63;;
24873;SDS011;12945;42.648;23.370;2023-03-14T03:05:18;32.03;;;15.65;;
24873;SDS011;12945;42.648;23.370;2023-03-14T03:07:43;27.92;;;15.30;;
24873;SDS011;12945;42.648;23.370;2023-03-14T03:10:09;35.63;;;15.32;;
24873;SDS011;12945;42.648;23.370;2023-03-14T03:12:34;28.92;;;15.07;;
24873;SDS011;12945;42.648;23.370;2023-03-14T03:15:00;29.80;;;14.88;;
24873;SDS011;12945;42.648;23.370;2023-03-14T03:17:26;26.20;;;14.93;;
24873;SDS011;12945;42.648;23.370;2023-03-14T03:20:00;28.85;;;16.02;;
24873;SDS011;12945;42.648;23.370;2023-03-14T03:22:26;27.15;;;15.02;;
24873;SDS011;12945;42.648;23.370;2023-03-14T03:24:51;32.55;;;16.60;;
24873;SDS011;12945;42.648;23.370;2023-03-14T03:27:16;33.10;;;15.82;;
24873;SDS011;12945;42.648;23.370;2023-03-14T03:29:41;32.33;;;15.98;;
24873;SDS011;12945;42.648;23.370;2023-03-14T03:32:09;27.48;;;15.30;;
24873;SDS011;12945;42.648;23.370;2023-03-14T03:34:34;35.25;;;15.60;;
24873;SDS011;12945;42.648;23.370;2023-03-14T03:39:44;27.35;;;15.25;;
24873;SDS011;12945;42.648;23.370;2023-03-14T03:44:54;31.92;;;15.45;;
24873;SDS011;12945;42.648;23.370;2023-03-14T03:47:20;29.60;;;16.25;;
24873;SDS011;12945;42.648;23.370;2023-03-14T03:49:45;32.55;;;15.60;;
24873;SDS011;12945;42.648;23.370;2023-03-14T03:52:25;37.83;;;16.15;;
24873;SDS011;12945;42.648;23.370;2023-03-14T03:54:50;29.75;;;15.68;;
24873;SDS011;12945;42.648;23.370;2023-03-14T03:57:20;28.17;;;14.05;;
24873;SDS011;12945;42.648;23.370;2023-03-14T03:59:45;27.33;;;15.05;;
24873;SDS011;12945;42.648;23.370;2023-03-14T04:04:40;32.80;;;15.18;;
24873;SDS011;12945;42.648;23.370;2023-03-14T04:07:06;30.35;;;15.13;;
24873;SDS011;12945;42.648;23.370;2023-03-14T04:09:31;30.27;;;15.32;;
24873;SDS011;12945;42.648;23.370;2023-03-14T04:11:58;33.83;;;15.45;;
24873;SDS011;12945;42.648;23.370;2023-03-14T04:14:24;26.85;;;15.32;;
24873;SDS011;12945;42.648;23.370;2023-03-14T04:17:00;32.03;;;15.32;;
24873;SDS011;12945;42.648;23.370;2023-03-14T04:19:25;27.90;;;15.80;;
24873;SDS011;12945;42.648;23.370;2023-03-14T04:24:32;28.20;;;14.48;;
24873;SDS011;12945;42.648;23.370;2023-03-14T04:26:59;30.20;;;14.85;;
24873;SDS011;12945;42.648;23.370;2023-03-14T04:29:24;32.40;;;15.27;;
24873;SDS011;12945;42.648;23.370;2023-03-14T04:31:52;32.38;;;15.27;;
24873;SDS011;12945;42.648;23.370;2023-03-14T04:34:17;27.52;;;15.18;;
24873;SDS011;12945;42.648;23.370;2023-03-14T04:36:45;34.83;;;15.75;;
24873;SDS011;12945;42.648;23.370;2023-03-14T04:39:11;38.50;;;14.68;;
24873;SDS011;12945;42.648;23.370;2023-03-14T04:41:47;35.08;;;15.88;;
24873;SDS011;12945;42.648;23.370;2023-03-14T04:44:12;31.20;;;15.68;;
24873;SDS011;12945;42.648;23.370;2023-03-14T04:46:39;32.13;;;15.75;;
24873;SDS011;12945;42.648;23.370;2023-03-14T04:49:04;35.20;;;16.08;;
24873;SDS011;12945;42.648;23.370;2023-03-14T04:54:07;32.65;;;15.65;;
24873;SDS011;12945;42.648;23.370;2023-03-14T04:56:32;28.83;;;15.05;;
24873;SDS011;12945;42.648;23.370;2023-03-14T04:58:57;36.28;;;15.02;;
24873;SDS011;12945;42.648;23.370;2023-03-14T05:01:23;34.30;;;16.00;;
24873;SDS011;12945;42.648;23.370;2023-03-14T05:03:48;30.42;;;14.88;;
24873;SDS011;12945;42.648;23.370;2023-03-14T05:06:16;41.80;;;15.88;;
24873;SDS011;12945;42.648;23.370;2023-03-14T05:08:42;29.15;;;15.60;;
24873;SDS011;12945;42.648;23.370;2023-03-14T05:11:09;28.83;;;14.70;;
24873;SDS011;12945;42.648;23.370;2023-03-14T05:13:35;37.78;;;15.40;;
24873;SDS011;12945;42.648;23.370;2023-03-14T05:18:44;32.75;;;15.95;;
24873;SDS011;12945;42.648;23.370;2023-03-14T05:21:12;33.85;;;17.02;;
24873;SDS011;12945;42.648;23.370;2023-03-14T05:23:37;32.20;;;16.45;;
24873;SDS011;12945;42.648;23.370;2023-03-14T05:26:02;32.25;;;16.17;;
24873;SDS011;12945;42.648;23.370;2023-03-14T05:28:28;31.50;;;14.88;;
24873;SDS011;12945;42.648;23.370;2023-03-14T05:33:29;30.85;;;15.23;;
24873;SDS011;12945;42.648;23.370;2023-03-14T05:35:56;30.17;;;14.45;;
24873;SDS011;12945;42.648;23.370;2023-03-14T05:38:21;24.90;;;15.07;;
24873;SDS011;12945;42.648;23.370;2023-03-14T05:40:48;34.47;;;15.82;;
24873;SDS011;12945;42.648;23.370;2023-03-14T05:43:13;29.50;;;15.63;;
24873;SDS011;12945;42.648;23.370;2023-03-14T05:45:40;31.90;;;15.32;;
24873;SDS011;12945;42.648;23.370;2023-03-14T05:48:06;25.35;;;11.95;;
24873;SDS011;12945;42.648;23.370;2023-03-14T05:50:38;22.23;;;11.35;;
24873;SDS011;12945;42.648;23.370;2023-03-14T05:53:03;22.85;;;9.82;;
24873;SDS011;12945;42.648;23.370;2023-03-14T05:57:59;18.08;;;7.53;;
24873;SDS011;12945;42.648;23.370;2023-03-14T06:00:25;24.90;;;9.07;;
24873;SDS011;12945;42.648;23.370;2023-03-14T06:02:50;27.40;;;7.97;;
24873;SDS011;12945;42.648;23.370;2023-03-14T06:05:16;15.25;;;8.02;;
24873;SDS011;12945;42.648;23.370;2023-03-14T06:07:41;18.23;;;8.18;;
24873;SDS011;12945;42.648;23.370;2023-03-14T06:10:06;15.80;;;8.80;;
24873;SDS011;12945;42.648;23.370;2023-03-14T06:15:22;21.05;;;8.50;;
24873;SDS011;12945;42.648;23.370;2023-03-14T06:17:56;20.50;;;8.98;;
24873;SDS011;12945;42.648;23.370;2023-03-14T06:20:21;22.92;;;9.50;;
24873;SDS011;12945;42.648;23.370;2023-03-14T06:22:46;16.63;;;8.90;;
24873;SDS011;12945;42.648;23.370;2023-03-14T06:25:12;21.08;;;9.55;;
24873;SDS011;12945;42.648;23.370;2023-03-14T06:30:24;22.48;;;9.32;;
24873;SDS011;12945;42.648;23.370;2023-03-14T06:32:51;15.75;;;9.57;;
24873;SDS011;12945;42.648;23.370;2023-03-14T06:35:16;20.13;;;10.35;;
24873;SDS011;12945;42.648;23.370;2023-03-14T06:37:41;14.82;;;9.35;;
24873;SDS011;12945;42.648;23.370;2023-03-14T06:40:07;18.13;;;9.13;;
24873;SDS011;12945;42.648;23.370;2023-03-14T06:45:08;18.55;;;9.40;;
24873;SDS011;12945;42.648;23.370;2023-03-14T06:47:35;15.30;;;9.30;;
24873;SDS011;12945;42.648;23.370;2023-03-14T06:50:00;16.38;;;9.57;;
24873;SDS011;12945;42.648;23.370;2023-03-14T06:52:33;16.50;;;8.55;;
24873;SDS011;12945;42.648;23.370;2023-03-14T06:54:58;12.95;;;8.82;;
24873;SDS011;12945;42.648;23.370;2023-03-14T06:57:28;15.38;;;8.25;;
24873;SDS011;12945;42.648;23.370;2023-03-14T06:59:53;18.30;;;9.30;;
24873;SDS011;12945;42.648;23.370;2023-03-14T07:04:55;22.85;;;9.55;;
24873;SDS011;12945;42.648;23.370;2023-03-14T07:07:21;18.08;;;8.80;;
24873;SDS011;12945;42.648;23.370;2023-03-14T07:09:47;20.67;;;10.05;;
24873;SDS011;12945;42.648;23.370;2023-03-14T07:14:57;17.60;;;9.45;;
24873;SDS011;12945;42.648;23.370;2023-03-14T07:17:22;18.48;;;10.30;;
24873;SDS011;12945;42.648;23.370;2023-03-14T07:19:47;19.05;;;10.38;;
24873;SDS011;12945;42.648;23.370;2023-03-14T07:22:17;18.67;;;9.18;;
24873;SDS011;12945;42.648;23.370;2023-03-14T07:24:42;25.58;;;9.75;;
24873;SDS011;12945;42.648;23.370;2023-03-14T07:27:07;16.15;;;8.98;;
24873;SDS011;12945;42.648;23.370;2023-03-14T07:29:33;18.80;;;10.07;;
24873;SDS011;12945;42.648;23.370;2023-03-14T07:32:03;19.02;;;10.75;;
24873;SDS011;12945;42.648;23.370;2023-03-14T07:34:28;24.02;;;11.23;;
24873;SDS011;12945;42.648;23.370;2023-03-14T07:37:00;20.70;;;10.15;;
24873;SDS011;12945;42.648;23.370;2023-03-14T07:39:25;21.55;;;10.60;;
24873;SDS011;12945;42.648;23.370;2023-03-14T07:41:51;19.80;;;11.05;;
24873;SDS011;12945;42.648;23.370;2023-03-14T07:44:16;24.67;;;11.30;;
24873;SDS011;12945;42.648;23.370;2023-03-14T07:46:47;29.98;;;11.73;;
24873;SDS011;12945;42.648;23.370;2023-03-14T07:49:12;25.48;;;11.60;;
24873;SDS011;12945;42.648;23.370;2023-03-14T07:51:51;22.83;;;10.85;;
24873;SDS011;12945;42.648;23.370;2023-03-14T07:54:16;24.75;;;11.70;;
24873;SDS011;12945;42.648;23.370;2023-03-14T07:56:50;21.17;;;12.40;;
24873;SDS011;12945;42.648;23.370;2023-03-14T07:59:16;25.60;;;12.20;;
24873;SDS011;12945;42.648;23.370;2023-03-14T08:01:47;22.60;;;12.93;;
24873;SDS011;12945;42.648;23.370;2023-03-14T08:04:12;23.17;;;12.75;;
24873;SDS011;12945;42.648;23.370;2023-03-14T08:06:39;25.08;;;12.73;;
24873;SDS011;12945;42.648;23.370;2023-03-14T08:09:05;22.23;;;12.52;;
24873;SDS011;12945;42.648;23.370;2023-03-14T08:11:39;28.27;;;12.82;;
24873;SDS011;12945;42.648;23.370;2023-03-14T08:14:04;24.92;;;13.43;;
24873;SDS011;12945;42.648;23.370;2023-03-14T08:16:35;26.90;;;14.00;;
24873;SDS011;12945;42.648;23.370;2023-03-14T08:19:00;25.95;;;13.82;;
24873;SDS011;12945;42.648;23.370;2023-03-14T08:21:32;25.08;;;14.00;;
24873;SDS011;12945;42.648;23.370;2023-03-14T08:23:58;23.65;;;13.70;;
24873;SDS011;12945;42.648;23.370;2023-03-14T08:26:24;33.72;;;14.63;;
24873;SDS011;12945;42.648;23.370;2023-03-14T08:28:49;28.90;;;15.02;;
24873;SDS011;12945;42.648;23.370;2023-03-14T08:31:16;34.00;;;14.30;;
24873;SDS011;12945;42.648;23.370;2023-03-14T08:33:41;29.60;;;14.07;;
24873;SDS011;12945;42.648;23.370;2023-03-14T08:36:07;21.88;;;13.73;;
24873;SDS011;12945;42.648;23.370;2023-03-14T08:38:33;26.85;;;13.57;;
24873;SDS011;12945;42.648;23.370;2023-03-14T08:41:05;29.88;;;13.80;;
24873;SDS011;12945;42.648;23.370;2023-03-14T08:43:31;23.80;;;13.10;;
24873;SDS011;12945;42.648;23.370;2023-03-14T08:46:00;25.70;;;14.13;;
24873;SDS011;12945;42.648;23.370;2023-03-14T08:48:26;27.88;;;13.10;;
24873;SDS011;12945;42.648;23.370;2023-03-14T08:50:51;27.83;;;13.50;;
24873;SDS011;12945;42.648;23.370;2023-03-14T08:53:19;25.02;;;13.73;;
24873;SDS011;12945;42.648;23.370;2023-03-14T08:55:45;22.95;;;12.82;;
24873;SDS011;12945;42.648;23.370;2023-03-14T08:58:22;24.08;;;12.65;;
24873;SDS011;12945;42.648;23.370;2023-03-14T09:00:48;24.77;;;12.95;;
24873;SDS011;12945;42.648;23.370;2023-03-14T09:03:18;27.35;;;12.38;;
24873;SDS011;12945;42.648;23.370;2023-03-14T09:05:43;24.55;;;12.80;;
24873;SDS011;12945;42.648;23.370;2023-03-14T09:11:11;20.02;;;11.27;;
24873;SDS011;12945;42.648;23.370;2023-03-14T09:13:37;35.08;;;12.10;;
24873;SDS011;12945;42.648;23.370;2023-03-14T09:16:03;22.98;;;11.52;;
24873;SDS011;12945;42.648;23.370;2023-03-14T09:18:29;21.15;;;11.50;;
24873;SDS011;12945;42.648;23.370;2023-03-14T09:20:54;19.40;;;11.45;;
24873;SDS011;12945;42.648;23.370;2023-03-14T09:25:54;17.17;;;9.82;;
24873;SDS011;12945;42.648;23.370;2023-03-14T09:28:30;21.65;;;10.57;;
24873;SDS011;12945;42.648;23.370;2023-03-14T09:30:55;24.52;;;11.23;;
24873;SDS011;12945;42.648;23.370;2023-03-14T09:33:25;25.08;;;11.68;;
24873;SDS011;12945;42.648;23.370;2023-03-14T09:35:51;21.95;;;10.52;;
24873;SDS011;12945;42.648;23.370;2023-03-14T09:38:21;17.58;;;9.45;;
24873;SDS011;12945;42.648;23.370;2023-03-14T09:40:46;18.75;;;10.40;;
24873;SDS011;12945;42.648;23.370;2023-03-14T09:43:12;16.63;;;9.52;;
24873;SDS011;12945;42.648;23.370;2023-03-14T09:45:39;16.33;;;11.00;;
24873;SDS011;12945;42.648;23.370;2023-03-14T09:50:57;21.00;;;9.40;;
24873;SDS011;12945;42.648;23.370;2023-03-14T09:59:25;16.10;;;9.40;;
24873;SDS011;12945;42.648;23.370;2023-03-14T10:01:55;18.13;;;9.93;;
24873;SDS011;12945;42.648;23.370;2023-03-14T10:04:21;13.55;;;8.35;;
24873;SDS011;12945;42.648;23.370;2023-03-14T10:07:05;18.08;;;9.27;;
24873;SDS011;12945;42.648;23.370;2023-03-14T10:09:30;15.82;;;8.23;;
24873;SDS011;12945;42.648;23.370;2023-03-14T10:14:37;14.65;;;7.72;;
24873;SDS011;12945;42.648;23.370;2023-03-14T10:17:10;9.80;;;7.30;;
24873;SDS011;12945;42.648;23.370;2023-03-14T10:19:36;11.75;;;7.38;;
24873;SDS011;12945;42.648;23.370;2023-03-14T10:22:10;12.00;;;7.25;;
24873;SDS011;12945;42.648;23.370;2023-03-14T10:24:38;11.38;;;6.88;;
24873;SDS011;12945;42.648;23.370;2023-03-14T10:27:23;14.70;;;7.97;;
24873;SDS011;12945;42.648;23.370;2023-03-14T10:29:53;10.82;;;6.82;;
24873;SDS011;12945;42.648;23.370;2023-03-14T10:32:20;12.18;;;7.68;;
24873;SDS011;12945;42.648;23.370;2023-03-14T10:34:45;10.88;;;5.57;;
24873;SDS011;12945;42.648;23.370;2023-03-14T10:37:31;14.00;;;5.22;;
24873;SDS011;12945;42.648;23.370;2023-03-14T10:40:00;11.80;;;5.38;;
24873;SDS011;12945;42.648;23.370;2023-03-14T10:45:02;8.68;;;5.32;;
24873;SDS011;12945;42.648;23.370;2023-03-14T10:47:35;8.13;;;5.53;;
24873;SDS011;12945;42.648;23.370;2023-03-14T10:52:54;6.95;;;5.20;;
24873;SDS011;12945;42.648;23.370;2023-03-14T10:55:20;12.93;;;5.03;;
24873;SDS011;12945;42.648;23.370;2023-03-14T10:57:47;12.40;;;5.05;;
24873;SDS011;12945;42.648;23.370;2023-03-14T11:00:14;12.07;;;5.10;;
24873;SDS011;12945;42.648;23.370;2023-03-14T11:11:01;8.73;;;4.15;;
24873;SDS011;12945;42.648;23.370;2023-03-14T11:16:09;7.40;;;4.07;;
24873;SDS011;12945;42.648;23.370;2023-03-14T11:21:29;11.90;;;4.00;;
24873;SDS011;12945;42.648;23.370;2023-03-14T11:34:33;8.13;;;4.20;;
24873;SDS011;12945;42.648;23.370;2023-03-14T11:39:29;8.02;;;4.00;;
24873;SDS011;12945;42.648;23.370;2023-03-14T11:42:07;6.82;;;4.20;;
24873;SDS011;12945;42.648;23.370;2023-03-14T11:44:39;7.10;;;3.92;;
24873;SDS011;12945;42.648;23.370;2023-03-14T11:49:42;7.55;;;3.58;;
24873;SDS011;12945;42.648;23.370;2023-03-14T11:57:31;12.40;;;3.65;;
24873;SDS011;12945;42.648;23.370;2023-03-14T12:10:49;6.05;;;3.13;;
24873;SDS011;12945;42.648;23.370;2023-03-14T12:13:20;7.35;;;3.42;;
24873;SDS011;12945;42.648;23.370;2023-03-14T12:20:53;5.55;;;2.95;;
24873;SDS011;12945;42.648;23.370;2023-03-14T12:26:23;5.72;;;2.78;;
24873;SDS011;12945;42.648;23.370;2023-03-14T12:49:52;2.78;;;2.03;;
24873;SDS011;12945;42.648;23.370;2023-03-14T12:55:07;5.68;;;2.20;;
24873;SDS011;12945;42.648;23.370;2023-03-14T13:00:32;11.80;;;3.20;;
24873;SDS011;12945;42.648;23.370;2023-03-14T13:05:59;3.55;;;2.10;;
24873;SDS011;12945;42.648;23.370;2023-03-14T13:11:14;6.93;;;2.30;;
24873;SDS011;12945;42.648;23.370;2023-03-14T13:16:27;5.97;;;2.20;;
24873;SDS011;12945;42.648;23.370;2023-03-14T13:19:13;3.90;;;2.40;;
24873;SDS011;12945;42.648;23.370;2023-03-14T13:21:42;6.15;;;2.28;;
24873;SDS011;12945;42.648;23.370;2023-03-14T13:26:36;4.43;;;1.90;;
24873;SDS011;12945;42.648;23.370;2023-03-14T13:31:52;5.30;;;2.60;;
24873;SDS011;12945;42.648;23.370;2023-03-14T13:34:19;4.70;;;1.85;;
24873;SDS011;12945;42.648;23.370;2023-03-14T13:36:44;2.97;;;2.03;;
24873;SDS011;12945;42.648;23.370;2023-03-14T13:39:10;5.95;;;2.10;;
24873;SDS011;12945;42.648;23.370;2023-03-14T13:41:37;2.58;;;1.73;;
24873;SDS011;12945;42.648;23.370;2023-03-14T13:44:17;5.78;;;2.20;;
24873;SDS011;12945;42.648;23.370;2023-03-14T13:46:46;3.65;;;2.15;;
24873;SDS011;12945;42.648;23.370;2023-03-14T13:49:15;5.32;;;2.10;;
24873;SDS011;12945;42.648;23.370;2023-03-14T13:51:42;3.22;;;2.00;;
24873;SDS011;12945;42.648;23.370;2023-03-14T13:54:16;5.03;;;2.20;;
24873;SDS011;12945;42.648;23.370;2023-03-14T13:56:41;6.80;;;3.00;;
24873;SDS011;12945;42.648;23.370;2023-03-14T14:01:52;9.52;;;2.20;;
24873;SDS011;12945;42.648;23.370;2023-03-14T14:04:19;2.97;;;2.10;;
24873;SDS011;12945;42.648;23.370;2023-03-14T14:09:27;6.32;;;2.08;;
24873;SDS011;12945;42.648;23.370;2023-03-14T14:14:25;9.10;;;2.60;;
24873;SDS011;12945;42.648;23.370;2023-03-14T14:16:51;3.53;;;2.10;;
24873;SDS011;12945;42.648;23.370;2023-03-14T14:19:17;7.47;;;3.00;;
24873;SDS011;12945;42.648;23.370;2023-03-14T14:21:43;3.92;;;2.30;;
24873;SDS011;12945;42.648;23.370;2023-03-14T14:24:14;7.28;;;2.50;;
24873;SDS011;12945;42.648;23.370;2023-03-14T14:26:41;8.30;;;2.67;;
24873;SDS011;12945;42.648;23.370;2023-03-14T14:29:06;3.67;;;2.33;;
24873;SDS011;12945;42.648;23.370;2023-03-14T14:31:31;4.57;;;2.10;;
24873;SDS011;12945;42.648;23.370;2023-03-14T14:34:17;7.25;;;2.60;;
24873;SDS011;12945;42.648;23.370;2023-03-14T14:36:43;5.25;;;2.40;;
24873;SDS011;12945;42.648;23.370;2023-03-14T14:51:44;7.78;;;2.67;;
24873;SDS011;12945;42.648;23.370;2023-03-14T14:54:19;7.50;;;2.13;;
24873;SDS011;12945;42.648;23.370;2023-03-14T14:56:46;4.97;;;2.67;;
24873;SDS011;12945;42.648;23.370;2023-03-14T14:59:22;9.43;;;2.45;;
24873;SDS011;12945;42.648;23.370;2023-03-14T15:01:48;5.55;;;1.98;;
24873;SDS011;12945;42.648;23.370;2023-03-14T15:04:16;5.03;;;2.28;;
24873;SDS011;12945;42.648;23.370;2023-03-14T15:06:45;2.80;;;1.75;;
24873;SDS011;12945;42.648;23.370;2023-03-14T15:09:11;3.45;;;1.98;;
24873;SDS011;12945;42.648;23.370;2023-03-14T15:11:37;2.92;;;1.98;;
24873;SDS011;12945;42.648;23.370;2023-03-14T15:14:02;4.10;;;2.20;;
24873;SDS011;12945;42.648;23.370;2023-03-14T15:16:29;7.60;;;2.45;;
24873;SDS011;12945;42.648;23.370;2023-03-14T15:18:55;4.25;;;2.20;;
24873;SDS011;12945;42.648;23.370;2023-03-14T15:21:21;5.40;;;2.00;;
24873;SDS011;12945;42.648;23.370;2023-03-14T15:23:47;2.83;;;2.05;;
24873;SDS011;12945;42.648;23.370;2023-03-14T15:26:20;6.57;;;2.20;;
24873;SDS011;12945;42.648;23.370;2023-03-14T15:28:45;8.30;;;2.35;;
24873;SDS011;12945;42.648;23.370;2023-03-14T15:31:12;7.07;;;2.25;;
24873;SDS011;12945;42.648;23.370;2023-03-14T15:33:38;6.78;;;2.40;;
24873;SDS011;12945;42.648;23.370;2023-03-14T15:36:05;5.82;;;2.58;;
24873;SDS011;12945;42.648;23.370;2023-03-14T15:38:32;4.30;;;2.30;;
24873;SDS011;12945;42.648;23.370;2023-03-14T15:40:57;5.10;;;2.30;;
24873;SDS011;12945;42.648;23.370;2023-03-14T15:43:23;5.35;;;2.20;;
24873;SDS011;12945;42.648;23.370;2023-03-14T15:45:48;6.57;;;2.53;;
24873;SDS011;12945;42.648;23.370;2023-03-14T15:48:18;8.52;;;3.00;;
24873;SDS011;12945;42.648;23.370;2023-03-14T15:50:44;8.63;;;2.60;;
24873;SDS011;12945;42.648;23.370;2023-03-14T15:53:09;5.75;;;2.35;;
24873;SDS011;12945;42.648;23.370;2023-03-14T15:55:35;5.53;;;2.58;;
24873;SDS011;12945;42.648;23.370;2023-03-14T15:58:00;8.23;;;2.42;;
24873;SDS011;12945;42.648;23.370;2023-03-14T16:00:27;4.80;;;3.08;;
24873;SDS011;12945;42.648;23.370;2023-03-14T16:02:52;8.15;;;3.08;;
24873;SDS011;12945;42.648;23.370;2023-03-14T16:05:18;6.97;;;2.95;;
24873;SDS011;12945;42.648;23.370;2023-03-14T16:07:46;4.00;;;2.58;;
24873;SDS011;12945;42.648;23.370;2023-03-14T16:10:12;7.30;;;2.88;;
24873;SDS011;12945;42.648;23.370;2023-03-14T16:12:38;8.75;;;2.85;;
24873;SDS011;12945;42.648;23.370;2023-03-14T16:15:04;7.75;;;3.15;;
24873;SDS011;12945;42.648;23.370;2023-03-14T16:17:29;7.20;;;2.72;;
24873;SDS011;12945;42.648;23.370;2023-03-14T16:19:55;7.03;;;3.20;;
24873;SDS011;12945;42.648;23.370;2023-03-14T16:22:20;5.25;;;3.08;;
24873;SDS011;12945;42.648;23.370;2023-03-14T16:24:45;8.38;;;3.58;;
24873;SDS011;12945;42.648;23.370;2023-03-14T16:27:10;7.43;;;3.28;;
24873;SDS011;12945;42.648;23.370;2023-03-14T16:29:36;6.97;;;3.28;;
24873;SDS011;12945;42.648;23.370;2023-03-14T16:32:01;12.15;;;3.65;;
24873;SDS011;12945;42.648;23.370;2023-03-14T16:34:27;6.75;;;3.30;;
24873;SDS011;12945;42.648;23.370;2023-03-14T16:36:52;6.40;;;2.47;;
24873;SDS011;12945;42.648;23.370;2023-03-14T16:39:19;6.43;;;3.25;;
24873;SDS011;12945;42.648;23.370;2023-03-14T16:41:44;7.80;;;3.05;;
24873;SDS011;12945;42.648;23.370;2023-03-14T16:44:10;10.77;;;3.50;;
24873;SDS011;12945;42.648;23.370;2023-03-14T16:46:35;6.85;;;3.70;;
24873;SDS011;12945;42.648;23.370;2023-03-14T16:49:01;8.32;;;3.42;;
24873;SDS011;12945;42.648;23.370;2023-03-14T16:51:27;6.70;;;3.53;;
24873;SDS011;12945;42.648;23.370;2023-03-14T16:53:52;14.93;;;3.60;;
24873;SDS011;12945;42.648;23.370;2023-03-14T16:56:18;8.23;;;3.90;;
24873;SDS011;12945;42.648;23.370;2023-03-14T16:58:43;8.43;;;3.75;;
24873;SDS011;12945;42.648;23.370;2023-03-14T17:01:09;9.43;;;3.70;;
24873;SDS011;12945;42.648;23.370;2023-03-14T17:03:36;4.93;;;3.35;;
24873;SDS011;12945;42.648;23.370;2023-03-14T17:06:01;8.25;;;4.00;;
24873;SDS011;12945;42.648;23.370;2023-03-14T17:08:28;9.48;;;4.05;;
24873;SDS011;12945;42.648;23.370;2023-03-14T17:10:53;9.18;;;4.00;;
24873;SDS011;12945;42.648;23.370;2023-03-14T17:13:18;9.13;;;4.10;;
24873;SDS011;12945;42.648;23.370;2023-03-14T17:15:51;8.68;;;3.72;;
24873;SDS011;12945;42.648;23.370;2023-03-14T17:18:16;18.25;;;8.70;;
24873;SDS011;12945;42.648;23.370;2023-03-14T17:20:41;8.75;;;4.70;;
24873;SDS011;12945;42.648;23.370;2023-03-14T17:23:07;6.90;;;4.05;;
24873;SDS011;12945;42.648;23.370;2023-03-14T17:25:33;7.55;;;4.03;;
24873;SDS011;12945;42.648;23.370;2023-03-14T17:28:00;10.32;;;4.38;;
24873;SDS011;12945;42.648;23.370;2023-03-14T17:30:25;7.43;;;3.88;;
24873;SDS011;12945;42.648;23.370;2023-03-14T17:32:51;9.55;;;4.10;;